Terminal Aerodrome Forecast
Issued by NWS Wakefield, VA

Home | Current Version | Previous Version | Text Only | Print | Product List | Glossary On
Versions: 1 2 3 4 5 6 7 8 9 10 11 12
000
FTUS41 KAKQ 271120
TAFRIC
TAF
KRIC 271120Z 2712/2812 17008KT P6SM SCT050 BKN250
     FM271800 21009KT P6SM SCT080 BKN100
     FM272100 21009KT P6SM VCSH BKN080
     FM280000 VRB04KT 5SM -SHRA OVC080=

USA.gov is the U.S. government's official web portal to all federal, state and local government web resources and services.